Time;durP1;ratioP1;P1;durP2;ratioP2;P2;SDS_P1;SDS_P2;PMS_P1;PMS_P2;Temp;Humidity;BMP_temperature;BMP_pressure;BME280_temperature;BME280_humidity;BME280_pressure;Samples;Min_cycle;Max_cycle;Signal;HPM_P1;HPM_P2
2022/10/11 00:01:40;;;;;;;;;;;;;;;;;;5116118;27;20371;-56
2022/10/11 00:04:05;;;;;;;;;;;;;;;;;;5115189;27;20359;-56
2022/10/11 00:06:30;;;;;;;;;;;;;;;;;;5124497;27;19911;-56
2022/10/11 00:08:55;;;;;;;;;;;;;;;;;;5126519;27;19915;-56
2022/10/11 00:11:20;;;;;;;;;;;;;;;;;;5126013;27;19927;-57
2022/10/11 00:13:45;;;;;;;;;;;;;;;;;;5118439;27;20373;-57
2022/10/11 00:16:11;;;;;;;;;;;;;;;;;;5119019;27;19998;-55
2022/10/11 00:18:36;;;;;;;;;;;;;;;;;;5115386;27;19926;-55
2022/10/11 00:21:01;;;;;;;;;;;;;;;;;;5114072;27;19963;-55
2022/10/11 00:23:26;;;;;;;;;;;;;;;;;;5126219;27;19920;-55
2022/10/11 00:25:51;;;;;;;;;;;;;;;;;;5124924;27;20259;-56
2022/10/11 00:28:16;;;;;;;;;;;;;;;;;;5118397;27;19968;-56
2022/10/11 00:30:42;;;;;;;;;;;;;;;;;;5124413;27;19919;-56
2022/10/11 00:33:07;;;;;;;;;;;;;;;;;;5120694;27;19919;-56
2022/10/11 00:35:32;;;;;;;;;;;;;;;;;;5111616;27;19919;-56
2022/10/11 00:37:57;;;;;;;;;;;;;;;;;;5128078;27;19915;-56
2022/10/11 00:40:23;;;;;;;;;;;;;;;;;;5122585;27;20491;-56
2022/10/11 00:42:48;;;;;;;;;;;;;;;;;;5120602;27;20293;-56
2022/10/11 00:45:13;;;;;;;;;;;;;;;;;;5109761;27;20010;-56
2022/10/11 00:47:38;;;;;;;;;;;;;;;;;;5115202;27;19916;-56
2022/10/11 00:50:03;;;;;;;;;;;;;;;;;;5123317;27;19965;-56
2022/10/11 00:52:30;;;;;;;;;;;;;;;;;;5118323;27;19984;-55
2022/10/11 00:54:55;;;;;;;;;;;;;;;;;;5115227;27;20014;-56
2022/10/11 00:57:20;;;;;;;;;;;;;;;;;;5120547;27;20010;-55
2022/10/11 00:59:45;;;;;;;;;;;;;;;;;;5118166;27;20451;-55
2022/10/11 01:02:10;;;;;;;;;;;;;;;;;;5111547;27;19961;-55
2022/10/11 01:04:35;;;;;;;;;;;;;;;;;;5109467;27;20415;-55
2022/10/11 01:07:00;;;;;;;;;;;;;;;;;;5099992;27;19915;-55
2022/10/11 01:09:26;;;;;;;;;;;;;;;;;;5122424;27;19915;-56
2022/10/11 01:11:51;;;;;;;;;;;;;;;;;;5112653;27;19923;-55
2022/10/11 01:14:16;;;;;;;;;;;;;;;;;;5109289;27;19916;-55
2022/10/11 01:16:41;;;;;;;;;;;;;;;;;;5107671;27;19967;-56
2022/10/11 01:19:06;;;;;;;;;;;;;;;;;;5121719;27;19915;-55
2022/10/11 01:21:31;;;;;;;;;;;;;;;;;;5125107;27;19919;-56
2022/10/11 01:23:56;;;;;;;;;;;;;;;;;;5124561;27;20385;-55
2022/10/11 01:26:21;;;;;;;;;;;;;;;;;;5120439;27;20282;-56
2022/10/11 01:28:46;;;;;;;;;;;;;;;;;;5115026;27;20436;-55
2022/10/11 01:31:11;;;;;;;;;;;;;;;;;;5116255;27;20005;-56
2022/10/11 01:33:37;;;;;;;;;;;;;;;;;;5114521;27;19918;-55
2022/10/11 01:36:02;;;;;;;;;;;;;;;;;;5111726;27;19937;-55
2022/10/11 01:38:27;;;;;;;;;;;;;;;;;;5113387;27;19919;-55
2022/10/11 01:40:52;;;;;;;;;;;;;;;;;;5129080;27;19912;-56
2022/10/11 01:43:17;;;;;;;;;;;;;;;;;;5120224;27;19964;-56
2022/10/11 01:45:42;;;;;;;;;;;;;;;;;;5114186;27;19965;-55
2022/10/11 01:48:07;;;;;;;;;;;;;;;;;;5124671;27;20006;-56
2022/10/11 01:50:32;;;;;;;;;;;;;;;;;;5116414;28;20404;-56
2022/10/11 01:52:57;;;;;;;;;;;;;;;;;;5108418;28;20006;-56
2022/10/11 01:55:22;;;;;;;;;;;;;;;;;;5114171;28;19920;-56
2022/10/11 01:57:48;;;;;;;;;;;;;;;;;;5124958;28;19931;-57
2022/10/11 02:00:13;;;;;;;;;;;;;;;;;;5119513;28;20389;-57
2022/10/11 02:02:38;;;;;;;;;;;;;;;;;;5118127;28;19912;-57
2022/10/11 02:05:03;;;;;;;;;;;;;;;;;;5116110;28;19957;-57
2022/10/11 02:07:28;;;;;;;;;;;;;;;;;;5123270;28;19912;-56
2022/10/11 02:09:53;;;;;;;;;;;;;;;;;;5118312;28;20179;-56
2022/10/11 02:12:18;;;;;;;;;;;;;;;;;;5117333;28;19915;-56
2022/10/11 02:14:43;;;;;;;;;;;;;;;;;;5118131;28;19911;-56
2022/10/11 02:17:08;;;;;;;;;;;;;;;;;;5123157;28;20282;-56
2022/10/11 02:19:33;;;;;;;;;;;;;;;;;;5115015;28;19962;-56
2022/10/11 02:21:59;;;;;;;;;;;;;;;;;;5125494;27;19911;-56
2022/10/11 02:24:24;;;;;;;;;;;;;;;;;;5120086;27;19939;-57
2022/10/11 02:26:51;;;;;;;;;;;;;;;;;;5125713;27;19933;-55
2022/10/11 02:29:16;;;;;;;;;;;;;;;;;;5129106;27;19942;-56
2022/10/11 02:31:41;;;;;;;;;;;;;;;;;;5126606;27;19916;-57
2022/10/11 02:34:06;;;;;;;;;;;;;;;;;;5127086;27;19969;-57
2022/10/11 02:36:32;;;;;;;;;;;;;;;;;;5130313;27;20204;-57
2022/10/11 02:38:57;;;;;;;;;;;;;;;;;;5113869;27;19912;-56
2022/10/11 02:41:22;;;;;;;;;;;;;;;;;;5116400;27;19916;-57
2022/10/11 02:43:47;;;;;;;;;;;;;;;;;;5116896;27;19912;-57
2022/10/11 02:46:12;;;;;;;;;;;;;;;;;;5121546;27;19916;-57
2022/10/11 02:48:38;;;;;;;;;;;;;;;;;;5116484;27;20420;-57
2022/10/11 02:51:03;;;;;;;;;;;;;;;;;;5130168;27;19912;-57
2022/10/11 02:53:28;;;;;;;;;;;;;;;;;;5112949;27;19980;-57
2022/10/11 02:55:54;;;;;;;;;;;;;;;;;;5128952;27;20006;-55
2022/10/11 02:58:19;;;;;;;;;;;;;;;;;;5127976;27;19915;-57
2022/10/11 03:00:44;;;;;;;;;;;;;;;;;;5124068;27;19915;-56
2022/10/11 03:03:09;;;;;;;;;;;;;;;;;;5111272;27;19923;-56
2022/10/11 03:05:39;;;;;;;;;;;;;;;;;;5111358;27;19964;-55
2022/10/11 03:08:04;;;;;;;;;;;;;;;;;;5116551;27;19951;-56
2022/10/11 03:10:29;;;;;;;;;;;;;;;;;;5120053;27;19950;-56
2022/10/11 03:12:54;;;;;;;;;;;;;;;;;;5126097;27;19926;-56
2022/10/11 03:15:19;;;;;;;;;;;;;;;;;;5121161;27;20422;-56
2022/10/11 03:17:44;;;;;;;;;;;;;;;;;;5126891;27;19962;-56
2022/10/11 03:20:09;;;;;;;;;;;;;;;;;;5121234;27;19916;-57
2022/10/11 03:22:35;;;;;;;;;;;;;;;;;;5119789;27;19979;-57
2022/10/11 03:25:00;;;;;;;;;;;;;;;;;;5127466;27;20362;-56
2022/10/11 03:27:25;;;;;;;;;;;;;;;;;;5130866;27;19919;-56
2022/10/11 03:29:50;;;;;;;;;;;;;;;;;;5122360;27;19966;-57
2022/10/11 03:32:15;;;;;;;;;;;;;;;;;;5127965;27;19916;-55
2022/10/11 03:34:40;;;;;;;;;;;;;;;;;;5126147;27;20378;-57
2022/10/11 03:37:05;;;;;;;;;;;;;;;;;;5131467;27;19908;-57
2022/10/11 03:39:30;;;;;;;;;;;;;;;;;;5120628;27;19920;-56
2022/10/11 03:41:56;;;;;;;;;;;;;;;;;;5116884;27;19916;-57
2022/10/11 03:44:21;;;;;;;;;;;;;;;;;;5122464;27;20466;-56
2022/10/11 03:46:46;;;;;;;;;;;;;;;;;;5111163;27;20049;-56
2022/10/11 03:49:11;;;;;;;;;;;;;;;;;;5128240;27;20389;-56
2022/10/11 03:51:36;;;;;;;;;;;;;;;;;;5116122;27;19916;-57
2022/10/11 03:54:01;;;;;;;;;;;;;;;;;;5119758;27;19911;-56
2022/10/11 03:56:26;;;;;;;;;;;;;;;;;;5129478;27;19923;-56
2022/10/11 03:58:51;;;;;;;;;;;;;;;;;;5119818;27;19919;-56
2022/10/11 04:01:16;;;;;;;;;;;;;;;;;;5117563;27;19916;-56
2022/10/11 04:03:41;;;;;;;;;;;;;;;;;;5130601;27;19934;-55
2022/10/11 04:06:06;;;;;;;;;;;;;;;;;;5139180;27;19965;-55
2022/10/11 04:08:32;;;;;;;;;;;;;;;;;;5120228;27;19938;-56
2022/10/11 04:10:57;;;;;;;;;;;;;;;;;;5128709;27;19907;-56
2022/10/11 04:13:22;;;;;;;;;;;;;;;;;;5133565;27;19956;-57
2022/10/11 04:15:47;;;;;;;;;;;;;;;;;;5127554;27;19926;-54
2022/10/11 04:18:12;;;;;;;;;;;;;;;;;;5119295;27;19915;-56
2022/10/11 04:20:37;;;;;;;;;;;;;;;;;;5112657;27;19912;-55
2022/10/11 04:23:02;;;;;;;;;;;;;;;;;;5118912;27;20497;-55
2022/10/11 04:25:27;;;;;;;;;;;;;;;;;;5122449;27;19956;-56
2022/10/11 04:27:52;;;;;;;;;;;;;;;;;;5114644;27;19979;-56
2022/10/11 04:30:17;;;;;;;;;;;;;;;;;;5113538;27;19920;-56
2022/10/11 04:32:43;;;;;;;;;;;;;;;;;;5113159;27;19938;-55
2022/10/11 04:35:09;;;;;;;;;;;;;;;;;;5111759;27;19915;-55
2022/10/11 04:37:34;;;;;;;;;;;;;;;;;;5106437;27;19919;-56
2022/10/11 04:39:59;;;;;;;;;;;;;;;;;;5121075;27;19922;-57
2022/10/11 04:42:24;;;;;;;;;;;;;;;;;;5114423;27;19972;-58
2022/10/11 04:44:49;;;;;;;;;;;;;;;;;;5108243;27;19916;-57
2022/10/11 04:47:14;;;;;;;;;;;;;;;;;;5108468;27;20316;-58
2022/10/11 04:49:39;;;;;;;;;;;;;;;;;;5107572;27;19970;-57
2022/10/11 04:52:04;;;;;;;;;;;;;;;;;;5106087;27;19920;-56
2022/10/11 04:54:29;;;;;;;;;;;;;;;;;;5109597;27;19912;-56
2022/10/11 04:56:54;;;;;;;;;;;;;;;;;;5115954;27;19922;-56
2022/10/11 04:59:19;;;;;;;;;;;;;;;;;;5112500;27;20010;-56
2022/10/11 05:01:45;;;;;;;;;;;;;;;;;;5112013;27;19965;-56
2022/10/11 05:04:10;;;;;;;;;;;;;;;;;;5114155;27;20025;-56
2022/10/11 05:06:35;;;;;;;;;;;;;;;;;;5107182;28;19926;-56
2022/10/11 05:09:00;;;;;;;;;;;;;;;;;;5106082;27;20000;-55
2022/10/11 05:11:25;;;;;;;;;;;;;;;;;;5109109;27;19974;-57
2022/10/11 05:13:50;;;;;;;;;;;;;;;;;;5108960;27;20013;-57
2022/10/11 05:16:15;;;;;;;;;;;;;;;;;;5115453;27;19920;-56
2022/10/11 05:18:40;;;;;;;;;;;;;;;;;;5110979;27;19988;-56
2022/10/11 05:21:05;;;;;;;;;;;;;;;;;;5120174;27;19908;-55
2022/10/11 05:23:30;;;;;;;;;;;;;;;;;;5108872;27;19923;-55
2022/10/11 05:25:56;;;;;;;;;;;;;;;;;;5129440;27;19918;-56
2022/10/11 05:28:21;;;;;;;;;;;;;;;;;;5115926;27;19915;-56
2022/10/11 05:30:46;;;;;;;;;;;;;;;;;;5110106;28;19927;-55
2022/10/11 05:33:11;;;;;;;;;;;;;;;;;;5108561;28;20382;-55
2022/10/11 05:35:36;;;;;;;;;;;;;;;;;;5115195;27;19941;-55
2022/10/11 05:38:01;;;;;;;;;;;;;;;;;;5109601;28;19912;-56
2022/10/11 05:40:26;;;;;;;;;;;;;;;;;;5109489;28;19957;-56
2022/10/11 05:42:51;;;;;;;;;;;;;;;;;;5109986;28;19938;-56
2022/10/11 05:45:16;;;;;;;;;;;;;;;;;;5110931;27;19924;-56
2022/10/11 05:47:41;;;;;;;;;;;;;;;;;;5109212;28;19911;-56
2022/10/11 05:50:06;;;;;;;;;;;;;;;;;;5117698;27;20358;-56
2022/10/11 05:52:32;;;;;;;;;;;;;;;;;;5110703;28;19928;-56
2022/10/11 05:54:57;;;;;;;;;;;;;;;;;;5110910;27;19954;-56
2022/10/11 05:57:22;;;;;;;;;;;;;;;;;;5121490;28;20005;-56
2022/10/11 05:59:47;;;;;;;;;;;;;;;;;;5124268;28;20311;-56
2022/10/11 06:02:12;;;;;;;;;;;;;;;;;;5128286;28;19915;-58
2022/10/11 06:04:37;;;;;;;;;;;;;;;;;;5121960;28;19965;-57
2022/10/11 06:07:02;;;;;;;;;;;;;;;;;;5109866;28;20315;-57
2022/10/11 06:09:27;;;;;;;;;;;;;;;;;;5117461;28;19964;-57
2022/10/11 06:11:52;;;;;;;;;;;;;;;;;;5128965;28;20421;-56
2022/10/11 06:14:18;;;;;;;;;;;;;;;;;;5118934;28;19911;-58
2022/10/11 06:16:43;;;;;;;;;;;;;;;;;;5115281;28;19996;-56
2022/10/11 06:19:08;;;;;;;;;;;;;;;;;;5120705;28;19919;-57
2022/10/11 06:21:33;;;;;;;;;;;;;;;;;;5110978;28;19915;-56
2022/10/11 06:24:00;;;;;;;;;;;;;;;;;;5121921;28;19911;-56
2022/10/11 06:26:25;;;;;;;;;;;;;;;;;;5119629;28;19999;-56
2022/10/11 06:28:50;;;;;;;;;;;;;;;;;;5112892;28;20005;-56
2022/10/11 06:31:15;;;;;;;;;;;;;;;;;;5124167;28;19923;-56
2022/10/11 06:33:41;;;;;;;;;;;;;;;;;;5115305;28;19919;-56
2022/10/11 06:36:06;;;;;;;;;;;;;;;;;;5116161;28;19942;-55
2022/10/11 06:38:31;;;;;;;;;;;;;;;;;;5109807;28;20350;-55
2022/10/11 06:40:56;;;;;;;;;;;;;;;;;;5109579;28;19919;-56
2022/10/11 06:43:21;;;;;;;;;;;;;;;;;;5109090;28;20502;-56
2022/10/11 06:45:46;;;;;;;;;;;;;;;;;;5109439;28;19999;-55
2022/10/11 06:48:11;;;;;;;;;;;;;;;;;;5110955;28;19912;-56
2022/10/11 06:50:37;;;;;;;;;;;;;;;;;;5105579;28;20014;-55
2022/10/11 06:53:02;;;;;;;;;;;;;;;;;;5124937;28;19922;-56
2022/10/11 06:55:27;;;;;;;;;;;;;;;;;;5109861;28;20289;-56
2022/10/11 06:57:52;;;;;;;;;;;;;;;;;;5109399;28;19908;-56
2022/10/11 07:00:18;;;;;;;;;;;;;;;;;;5122256;28;19957;-58
2022/10/11 07:02:43;;;;;;;;;;;;;;;;;;5129383;28;19908;-57
2022/10/11 07:05:08;;;;;;;;;;;;;;;;;;5115601;28;20575;-56
2022/10/11 07:07:33;;;;;;;;;;;;;;;;;;5110909;28;19908;-56
2022/10/11 07:09:58;;;;;;;;;;;;;;;;;;5112862;28;20017;-57
2022/10/11 07:12:23;;;;;;;;;;;;;;;;;;5112532;28;20002;-56
2022/10/11 07:14:48;;;;;;;;;;;;;;;;;;5114228;27;19917;-55
2022/10/11 07:17:13;;;;;;;;;;;;;;;;;;5133166;27;19908;-56
2022/10/11 07:19:38;;;;;;;;;;;;;;;;;;5133070;27;20003;-56
2022/10/11 07:22:03;;;;;;;;;;;;;;;;;;5133158;27;19908;-56
2022/10/11 07:24:29;;;;;;;;;;;;;;;;;;5132633;27;19930;-55
2022/10/11 07:26:54;;;;;;;;;;;;;;;;;;5127827;27;20389;-55
2022/10/11 07:29:19;;;;;;;;;;;;;;;;;;5132326;27;19916;-55
2022/10/11 07:31:44;;;;;;;;;;;;;;;;;;5133050;27;19915;-55
2022/10/11 07:34:09;;;;;;;;;;;;;;;;;;5132715;27;20261;-56
2022/10/11 07:36:34;;;;;;;;;;;;;;;;;;5130669;27;19915;-55
2022/10/11 07:38:59;;;;;;;;;;;;;;;;;;5132975;27;19908;-55
2022/10/11 07:41:24;;;;;;;;;;;;;;;;;;5132561;27;20385;-56
2022/10/11 07:43:50;;;;;;;;;;;;;;;;;;5127017;27;19918;-56
2022/10/11 07:46:15;;;;;;;;;;;;;;;;;;5132805;27;20279;-56
2022/10/11 07:48:40;;;;;;;;;;;;;;;;;;5132122;27;19972;-56
2022/10/11 07:51:05;;;;;;;;;;;;;;;;;;5132361;27;19907;-56
2022/10/11 07:53:30;;;;;;;;;;;;;;;;;;5129158;27;20255;-56
2022/10/11 07:55:55;;;;;;;;;;;;;;;;;;5117462;27;19964;-56
2022/10/11 07:58:20;;;;;;;;;;;;;;;;;;5120031;27;19907;-56
2022/10/11 08:00:46;;;;;;;;;;;;;;;;;;5123756;27;19915;-56
2022/10/11 08:03:11;;;;;;;;;;;;;;;;;;5118515;27;19915;-56
2022/10/11 08:05:36;;;;;;;;;;;;;;;;;;5111595;28;19916;-56
2022/10/11 08:08:01;;;;;;;;;;;;;;;;;;5111758;28;19908;-56
2022/10/11 08:10:26;;;;;;;;;;;;;;;;;;5111590;28;20153;-56
2022/10/11 08:12:52;;;;;;;;;;;;;;;;;;5111733;27;19958;-56
2022/10/11 08:15:17;;;;;;;;;;;;;;;;;;5124291;27;20342;-57
2022/10/11 08:17:42;;;;;;;;;;;;;;;;;;5111806;27;20327;-56
2022/10/11 08:20:07;;;;;;;;;;;;;;;;;;5111653;28;20406;-57
2022/10/11 08:22:33;;;;;;;;;;;;;;;;;;5111184;28;19911;-56
2022/10/11 08:24:58;;;;;;;;;;;;;;;;;;5110781;28;19912;-57
2022/10/11 08:27:23;;;;;;;;;;;;;;;;;;5124861;27;20361;-56
2022/10/11 08:29:48;;;;;;;;;;;;;;;;;;5131425;27;19959;-56
2022/10/11 08:32:13;;;;;;;;;;;;;;;;;;5131933;27;19918;-56
2022/10/11 08:34:38;;;;;;;;;;;;;;;;;;5131147;27;19959;-56
2022/10/11 08:37:03;;;;;;;;;;;;;;;;;;5123327;27;20302;-56
2022/10/11 08:39:28;;;;;;;;;;;;;;;;;;5129600;27;19911;-56
2022/10/11 08:41:53;;;;;;;;;;;;;;;;;;5131344;27;19907;-56
2022/10/11 08:44:18;;;;;;;;;;;;;;;;;;5131259;27;20354;-56
2022/10/11 08:46:44;;;;;;;;;;;;;;;;;;5128902;27;19907;-56
2022/10/11 08:49:09;;;;;;;;;;;;;;;;;;5121904;27;19985;-57
2022/10/11 08:51:34;;;;;;;;;;;;;;;;;;5131234;27;19912;-56
2022/10/11 08:53:59;;;;;;;;;;;;;;;;;;5131290;27;19983;-57
2022/10/11 08:56:24;;;;;;;;;;;;;;;;;;5130926;27;20525;-57
2022/10/11 08:58:49;;;;;;;;;;;;;;;;;;5124266;27;20010;-57
2022/10/11 09:01:14;;;;;;;;;;;;;;;;;;5110395;28;19930;-57
2022/10/11 09:03:39;;;;;;;;;;;;;;;;;;5110272;28;19991;-57
2022/10/11 09:06:05;;;;;;;;;;;;;;;;;;5110534;28;19947;-56
2022/10/11 09:08:30;;;;;;;;;;;;;;;;;;5110430;28;20285;-57
2022/10/11 09:10:55;;;;;;;;;;;;;;;;;;5129616;27;19916;-56
2022/10/11 09:13:29;;;;;;;;;;;;;;;;;;5130656;27;20414;-56
2022/10/11 09:15:54;;;;;;;;;;;;;;;;;;5130892;27;19969;-56
2022/10/11 09:18:20;;;;;;;;;;;;;;;;;;5130662;27;19911;-56
2022/10/11 09:20:45;;;;;;;;;;;;;;;;;;5115413;27;19919;-56
2022/10/11 09:23:10;;;;;;;;;;;;;;;;;;5110262;28;19959;-56
2022/10/11 09:25:35;;;;;;;;;;;;;;;;;;5109868;28;19904;-57
2022/10/11 09:28:00;;;;;;;;;;;;;;;;;;5109988;28;20282;-57
2022/10/11 09:30:25;;;;;;;;;;;;;;;;;;5110187;28;20386;-56
2022/10/11 09:32:50;;;;;;;;;;;;;;;;;;5109642;28;20012;-56
2022/10/11 09:35:15;;;;;;;;;;;;;;;;;;5110007;28;19916;-56
2022/10/11 09:37:40;;;;;;;;;;;;;;;;;;5109534;28;20278;-56
2022/10/11 09:40:05;;;;;;;;;;;;;;;;;;5109510;28;19908;-57
2022/10/11 09:42:31;;;;;;;;;;;;;;;;;;5128672;27;19912;-57
2022/10/11 09:44:56;;;;;;;;;;;;;;;;;;5130463;27;20489;-56
2022/10/11 09:47:21;;;;;;;;;;;;;;;;;;5130126;27;19972;-56
2022/10/11 09:49:46;;;;;;;;;;;;;;;;;;5130060;27;19916;-56
2022/10/11 09:52:11;;;;;;;;;;;;;;;;;;5119871;27;20008;-55
2022/10/11 09:54:36;;;;;;;;;;;;;;;;;;5126501;27;19920;-57
2022/10/11 09:57:01;;;;;;;;;;;;;;;;;;5130189;28;19915;-57
2022/10/11 09:59:27;;;;;;;;;;;;;;;;;;5130218;28;19919;-58
2022/10/11 10:01:52;;;;;;;;;;;;;;;;;;5130571;28;19912;-57
2022/10/11 10:04:17;;;;;;;;;;;;;;;;;;5119767;28;19922;-58
2022/10/11 10:06:42;;;;;;;;;;;;;;;;;;5108823;28;20587;-56
2022/10/11 10:09:07;;;;;;;;;;;;;;;;;;5110066;28;19959;-57
2022/10/11 10:11:32;;;;;;;;;;;;;;;;;;5109093;28;19912;-56
2022/10/11 10:13:57;;;;;;;;;;;;;;;;;;5108945;28;19946;-56
2022/10/11 10:16:22;;;;;;;;;;;;;;;;;;5109589;28;20330;-56
2022/10/11 10:18:47;;;;;;;;;;;;;;;;;;5109244;28;19908;-56
2022/10/11 10:21:13;;;;;;;;;;;;;;;;;;5109501;28;20016;-55
2022/10/11 10:23:38;;;;;;;;;;;;;;;;;;5109385;28;20366;-56
2022/10/11 10:26:03;;;;;;;;;;;;;;;;;;5121189;28;19912;-56
2022/10/11 10:28:28;;;;;;;;;;;;;;;;;;5129803;28;19914;-57
2022/10/11 10:30:54;;;;;;;;;;;;;;;;;;5129843;28;19920;-57
2022/10/11 10:33:19;;;;;;;;;;;;;;;;;;5116719;28;19919;-56
2022/10/11 10:35:45;;;;;;;;;;;;;;;;;;5109203;28;19908;-56
2022/10/11 10:38:10;;;;;;;;;;;;;;;;;;5109521;28;20304;-57
2022/10/11 10:40:35;;;;;;;;;;;;;;;;;;5109512;28;19937;-55
2022/10/11 10:43:00;;;;;;;;;;;;;;;;;;5112518;27;19916;-56
2022/10/11 10:45:25;;;;;;;;;;;;;;;;;;5113263;28;20349;-56
2022/10/11 10:47:50;;;;;;;;;;;;;;;;;;5129995;27;19911;-56
2022/10/11 10:50:15;;;;;;;;;;;;;;;;;;5133794;27;19915;-56
2022/10/11 10:52:41;;;;;;;;;;;;;;;;;;5132791;27;20381;-56
2022/10/11 10:55:06;;;;;;;;;;;;;;;;;;5128037;27;19911;-55
2022/10/11 10:57:31;;;;;;;;;;;;;;;;;;5133346;27;19918;-55
2022/10/11 10:59:56;;;;;;;;;;;;;;;;;;5133344;27;20314;-55
2022/10/11 11:02:21;;;;;;;;;;;;;;;;;;5133258;27;19934;-56
2022/10/11 11:04:46;;;;;;;;;;;;;;;;;;5128788;27;19911;-55
2022/10/11 11:07:11;;;;;;;;;;;;;;;;;;5132213;27;20338;-55
2022/10/11 11:09:37;;;;;;;;;;;;;;;;;;5133096;27;19915;-56
2022/10/11 11:12:02;;;;;;;;;;;;;;;;;;5132807;27;20011;-56
2022/10/11 11:14:27;;;;;;;;;;;;;;;;;;5126597;27;20032;-56
2022/10/11 11:16:52;;;;;;;;;;;;;;;;;;5128978;27;19943;-56
2022/10/11 11:19:17;;;;;;;;;;;;;;;;;;5133051;27;19908;-56
2022/10/11 11:21:42;;;;;;;;;;;;;;;;;;5132775;27;19904;-56
2022/10/11 11:24:07;;;;;;;;;;;;;;;;;;5133042;27;20358;-55
2022/10/11 11:26:32;;;;;;;;;;;;;;;;;;5127860;27;19918;-55
2022/10/11 11:28:57;;;;;;;;;;;;;;;;;;5114245;27;19912;-53
2022/10/11 11:31:22;;;;;;;;;;;;;;;;;;5133022;27;19911;-55
2022/10/11 11:33:47;;;;;;;;;;;;;;;;;;5132940;27;19907;-55
2022/10/11 11:36:13;;;;;;;;;;;;;;;;;;5127354;27;19918;-57
2022/10/11 11:38:38;;;;;;;;;;;;;;;;;;5133043;27;20013;-56
2022/10/11 11:41:04;;;;;;;;;;;;;;;;;;5132821;27;19915;-56
2022/10/11 11:43:31;;;;;;;;;;;;;;;;;;5132726;27;19914;-56
2022/10/11 11:45:57;;;;;;;;;;;;;;;;;;5127496;27;19952;-56
2022/10/11 11:48:25;;;;;;;;;;;;;;;;;;5125249;27;19911;-55
2022/10/11 11:50:51;;;;;;;;;;;;;;;;;;5132027;27;19908;-55
2022/10/11 11:53:16;;;;;;;;;;;;;;;;;;5130058;27;19927;-56
2022/10/11 11:55:41;;;;;;;;;;;;;;;;;;5132557;27;19914;-56
2022/10/11 11:58:06;;;;;;;;;;;;;;;;;;5114464;27;19919;-55
2022/10/11 12:00:31;;;;;;;;;;;;;;;;;;5111942;28;19908;-55
2022/10/11 12:02:56;;;;;;;;;;;;;;;;;;5111506;28;19916;-56
2022/10/11 12:05:21;;;;;;;;;;;;;;;;;;5111945;28;19907;-56
2022/10/11 12:07:47;;;;;;;;;;;;;;;;;;5111683;27;20065;-56
2022/10/11 12:10:12;;;;;;;;;;;;;;;;;;5108131;27;20010;-56
2022/10/11 12:12:37;;;;;;;;;;;;;;;;;;5128782;27;19915;-56
2022/10/11 12:15:02;;;;;;;;;;;;;;;;;;5123053;27;20026;-57
2022/10/11 12:17:27;;;;;;;;;;;;;;;;;;5119122;27;19999;-58
2022/10/11 12:19:52;;;;;;;;;;;;;;;;;;5140437;27;19918;-57
2022/10/11 12:22:17;;;;;;;;;;;;;;;;;;5115590;27;20002;-57
2022/10/11 12:24:42;;;;;;;;;;;;;;;;;;5111919;27;20277;-57
2022/10/11 12:27:07;;;;;;;;;;;;;;;;;;5124583;27;20368;-56
2022/10/11 12:29:32;;;;;;;;;;;;;;;;;;5122095;27;19930;-57
2022/10/11 12:31:58;;;;;;;;;;;;;;;;;;5118393;27;19916;-57
2022/10/11 12:34:23;;;;;;;;;;;;;;;;;;5128202;27;19911;-55
2022/10/11 12:36:48;;;;;;;;;;;;;;;;;;5127549;27;19949;-56
2022/10/11 12:39:13;;;;;;;;;;;;;;;;;;5128725;27;19911;-55
2022/10/11 12:41:38;;;;;;;;;;;;;;;;;;5125455;27;20061;-55
2022/10/11 12:44:03;;;;;;;;;;;;;;;;;;5136115;27;19916;-56
2022/10/11 12:46:28;;;;;;;;;;;;;;;;;;5122475;27;19918;-55
2022/10/11 12:48:53;;;;;;;;;;;;;;;;;;5110127;27;19977;-56
2022/10/11 12:51:18;;;;;;;;;;;;;;;;;;5114317;27;19912;-56
2022/10/11 12:53:43;;;;;;;;;;;;;;;;;;5113514;27;19908;-56
2022/10/11 12:56:08;;;;;;;;;;;;;;;;;;5107631;28;19969;-56
2022/10/11 12:58:40;;;;;;;;;;;;;;;;;;5108540;27;20278;-56
2022/10/11 13:01:05;;;;;;;;;;;;;;;;;;5107427;28;19915;-57
2022/10/11 13:03:30;;;;;;;;;;;;;;;;;;5112580;27;19915;-56
2022/10/11 13:05:56;;;;;;;;;;;;;;;;;;5116135;27;19908;-56
2022/10/11 13:08:21;;;;;;;;;;;;;;;;;;5107333;28;19934;-56
2022/10/11 13:10:46;;;;;;;;;;;;;;;;;;5111589;27;19922;-57
2022/10/11 13:13:11;;;;;;;;;;;;;;;;;;5107862;27;19973;-57
2022/10/11 13:15:36;;;;;;;;;;;;;;;;;;5111129;27;19912;-57
2022/10/11 13:18:01;;;;;;;;;;;;;;;;;;5125017;27;20323;-55
2022/10/11 13:20:26;;;;;;;;;;;;;;;;;;5113855;27;19968;-57
2022/10/11 13:22:51;;;;;;;;;;;;;;;;;;5116133;27;20280;-57
2022/10/11 13:25:17;;;;;;;;;;;;;;;;;;5106985;28;19947;-55
2022/10/11 13:27:42;;;;;;;;;;;;;;;;;;5106196;27;19912;-57
2022/10/11 13:30:07;;;;;;;;;;;;;;;;;;5129640;27;19923;-56
2022/10/11 13:32:33;;;;;;;;;;;;;;;;;;5126339;27;19929;-56
2022/10/11 13:34:59;;;;;;;;;;;;;;;;;;5121969;27;19972;-59
2022/10/11 13:37:25;;;;;;;;;;;;;;;;;;5133404;27;21463;-59
2022/10/11 13:39:51;;;;;;;;;;;;;;;;;;5125465;27;20347;-56
2022/10/11 13:42:16;;;;;;;;;;;;;;;;;;5117512;27;19965;-56
2022/10/11 13:44:41;;;;;;;;;;;;;;;;;;5111225;27;19941;-57
2022/10/11 13:47:06;;;;;;;;;;;;;;;;;;5112104;27;19916;-56
2022/10/11 13:49:36;;;;;;;;;;;;;;;;;;5110350;28;19914;-56
2022/10/11 13:52:01;;;;;;;;;;;;;;;;;;5125909;27;19934;-56
2022/10/11 13:54:26;;;;;;;;;;;;;;;;;;5092530;28;20112;-56
2022/10/11 13:56:51;;;;;;;;;;;;;;;;;;5109440;28;20259;-56
2022/10/11 13:59:16;;;;;;;;;;;;;;;;;;5109763;28;19961;-56
2022/10/11 14:01:41;;;;;;;;;;;;;;;;;;5109890;28;19968;-56
2022/10/11 14:04:06;;;;;;;;;;;;;;;;;;5109753;28;19915;-56
2022/10/11 14:06:32;;;;;;;;;;;;;;;;;;5117161;28;20392;-56
2022/10/11 14:08:58;;;;;;;;;;;;;;;;;;5130238;28;19946;-56
2022/10/11 14:11:23;;;;;;;;;;;;;;;;;;5127618;28;19918;-57
2022/10/11 14:13:51;;;;;;;;;;;;;;;;;;5123994;28;19912;-56
2022/10/11 14:16:16;;;;;;;;;;;;;;;;;;5111559;28;20285;-56
2022/10/11 14:18:42;;;;;;;;;;;;;;;;;;5113411;28;19908;-56
2022/10/11 14:21:07;;;;;;;;;;;;;;;;;;5113299;28;19912;-56
2022/10/11 14:23:32;;;;;;;;;;;;;;;;;;5114749;27;19916;-56
2022/10/11 14:25:57;;;;;;;;;;;;;;;;;;5112726;27;20819;-56
2022/10/11 14:28:22;;;;;;;;;;;;;;;;;;5113437;28;19915;-56
2022/10/11 14:30:47;;;;;;;;;;;;;;;;;;5113658;28;19934;-57
2022/10/11 14:33:12;;;;;;;;;;;;;;;;;;5113223;28;19919;-57
2022/10/11 14:35:37;;;;;;;;;;;;;;;;;;5112834;28;20002;-57
2022/10/11 14:38:02;;;;;;;;;;;;;;;;;;5112939;28;19919;-57
2022/10/11 14:40:27;;;;;;;;;;;;;;;;;;5113287;28;19912;-57
2022/10/11 14:42:53;;;;;;;;;;;;;;;;;;5113463;28;19946;-55
2022/10/11 14:45:19;;;;;;;;;;;;;;;;;;5113145;27;19916;-56
2022/10/11 14:47:45;;;;;;;;;;;;;;;;;;5112946;28;19908;-56
2022/10/11 14:50:10;;;;;;;;;;;;;;;;;;5132349;27;19938;-55
2022/10/11 14:52:35;;;;;;;;;;;;;;;;;;5130288;27;19940;-56
2022/10/11 14:55:00;;;;;;;;;;;;;;;;;;5126197;27;19971;-56
2022/10/11 14:57:26;;;;;;;;;;;;;;;;;;5129339;27;19912;-56
2022/10/11 14:59:51;;;;;;;;;;;;;;;;;;5121506;27;19920;-56
2022/10/11 15:02:16;;;;;;;;;;;;;;;;;;5113466;27;20006;-56
2022/10/11 15:04:41;;;;;;;;;;;;;;;;;;5113151;28;19953;-56
2022/10/11 15:07:06;;;;;;;;;;;;;;;;;;5112628;28;20278;-56
2022/10/11 15:09:31;;;;;;;;;;;;;;;;;;5113280;27;20290;-56
2022/10/11 15:11:56;;;;;;;;;;;;;;;;;;5112974;28;19922;-55
2022/10/11 15:14:21;;;;;;;;;;;;;;;;;;5111491;27;19918;-56
2022/10/11 15:16:47;;;;;;;;;;;;;;;;;;5126426;27;19919;-55
2022/10/11 15:19:12;;;;;;;;;;;;;;;;;;5113391;27;19912;-55
2022/10/11 15:21:37;;;;;;;;;;;;;;;;;;5112678;28;19931;-57
2022/10/11 15:24:02;;;;;;;;;;;;;;;;;;5115976;27;19918;-57
2022/10/11 15:26:27;;;;;;;;;;;;;;;;;;5132989;27;19912;-56
2022/10/11 15:28:52;;;;;;;;;;;;;;;;;;5131350;27;19960;-55
2022/10/11 15:31:17;;;;;;;;;;;;;;;;;;5132881;27;19999;-56
2022/10/11 15:33:42;;;;;;;;;;;;;;;;;;5132818;27;19916;-56
2022/10/11 15:36:07;;;;;;;;;;;;;;;;;;5130678;27;19926;-56
2022/10/11 15:38:32;;;;;;;;;;;;;;;;;;5129993;27;19960;-56
2022/10/11 15:40:58;;;;;;;;;;;;;;;;;;5112146;28;19998;-56
2022/10/11 15:43:23;;;;;;;;;;;;;;;;;;5111721;28;19977;-56
2022/10/11 15:45:48;;;;;;;;;;;;;;;;;;5112615;27;19916;-55
2022/10/11 15:48:13;;;;;;;;;;;;;;;;;;5126122;27;19914;-56
2022/10/11 15:50:40;;;;;;;;;;;;;;;;;;5132638;27;19911;-57
2022/10/11 15:53:05;;;;;;;;;;;;;;;;;;5132164;27;19911;-56
2022/10/11 15:55:30;;;;;;;;;;;;;;;;;;5130455;27;20044;-55
2022/10/11 15:57:56;;;;;;;;;;;;;;;;;;5128501;27;19915;-56
2022/10/11 16:00:21;;;;;;;;;;;;;;;;;;5113782;27;20023;-56
2022/10/11 16:02:46;;;;;;;;;;;;;;;;;;5111499;28;19908;-55
2022/10/11 16:05:11;;;;;;;;;;;;;;;;;;5111459;28;19961;-56
2022/10/11 16:07:36;;;;;;;;;;;;;;;;;;5118996;27;19994;-56
2022/10/11 16:10:01;;;;;;;;;;;;;;;;;;5117324;27;19911;-55
2022/10/11 16:12:26;;;;;;;;;;;;;;;;;;5111560;28;19922;-55
2022/10/11 16:14:51;;;;;;;;;;;;;;;;;;5111731;28;19908;-55
2022/10/11 16:17:16;;;;;;;;;;;;;;;;;;5113723;27;19920;-55
2022/10/11 16:19:41;;;;;;;;;;;;;;;;;;5130246;27;19912;-55
2022/10/11 16:22:06;;;;;;;;;;;;;;;;;;5131500;27;19942;-56
2022/10/11 16:24:32;;;;;;;;;;;;;;;;;;5131988;27;19908;-56
2022/10/11 16:26:57;;;;;;;;;;;;;;;;;;5131848;27;19915;-56
2022/10/11 16:29:23;;;;;;;;;;;;;;;;;;5112648;27;19915;-55
2022/10/11 16:31:48;;;;;;;;;;;;;;;;;;5111176;28;19988;-56